createdAt,value
2018-05-25T00:01:36.673Z,81.20
2018-05-25T00:05:09.155Z,81.40
2018-05-25T00:08:41.672Z,81.50
2018-05-25T00:12:14.174Z,81.60
2018-05-25T00:15:46.659Z,81.70
2018-05-25T00:19:19.917Z,81.90
2018-05-25T00:22:52.404Z,82.10
2018-05-25T00:26:24.873Z,82.00
2018-05-25T00:29:57.399Z,82.00
2018-05-25T00:33:29.890Z,82.20
2018-05-25T00:37:02.372Z,82.20
2018-05-25T00:40:34.888Z,82.30
2018-05-25T00:44:07.425Z,83.20
2018-05-25T00:47:40.691Z,82.70
2018-05-25T00:51:13.189Z,82.70
2018-05-25T00:54:58.063Z,83.60
2018-05-25T00:58:30.560Z,82.80
2018-05-25T01:02:03.084Z,82.70
2018-05-25T01:05:35.582Z,82.70
2018-05-25T01:09:08.072Z,82.60
2018-05-25T01:12:40.568Z,82.60
2018-05-25T01:16:13.040Z,82.70
2018-05-25T01:19:45.532Z,82.90
2018-05-25T01:23:18.022Z,83.20
2018-05-25T01:26:51.265Z,83.60
2018-05-25T01:30:23.753Z,83.60
2018-05-25T01:33:56.234Z,83.50
2018-05-25T01:37:28.715Z,83.60
2018-05-25T01:41:01.204Z,83.60
2018-05-25T01:44:33.684Z,83.50
2018-05-25T01:48:06.181Z,83.60
2018-05-25T01:51:38.653Z,83.70
2018-05-25T01:55:11.144Z,83.80
2018-05-25T01:58:43.625Z,83.80
2018-05-25T02:02:16.112Z,83.80
2018-05-25T02:05:48.581Z,83.80
2018-05-25T02:09:21.070Z,83.60
2018-05-25T02:12:53.552Z,83.60
2018-05-25T02:16:26.030Z,83.60
2018-05-25T02:19:58.524Z,83.50
2018-05-25T02:23:31.008Z,83.30
2018-05-25T02:27:03.472Z,83.30
2018-05-25T02:30:35.965Z,83.20
2018-05-25T02:34:08.459Z,83.30
2018-05-25T02:37:40.943Z,83.20
2018-05-25T02:41:13.424Z,83.30
2018-05-25T02:44:46.131Z,84.20
2018-05-25T02:48:18.619Z,83.60
2018-05-25T02:51:51.093Z,83.80
2018-05-25T02:55:24.342Z,84.00
2018-05-25T02:58:56.830Z,84.00
2018-05-25T03:02:29.312Z,84.00
2018-05-25T03:06:01.847Z,84.10
2018-05-25T03:09:35.097Z,84.20
2018-05-25T03:13:07.620Z,84.10
2018-05-25T03:16:40.856Z,85.00
2018-05-25T03:20:13.344Z,84.00
2018-05-25T03:23:45.836Z,84.00
2018-05-25T03:27:18.320Z,84.10
2018-05-25T03:30:50.800Z,84.10
2018-05-25T03:34:23.281Z,84.00
2018-05-25T03:37:55.768Z,83.90
2018-05-25T03:41:28.244Z,84.00
2018-05-25T03:45:00.723Z,83.90
2018-05-25T03:48:33.971Z,84.10
2018-05-25T03:52:06.460Z,84.00
2018-05-25T03:55:39.688Z,84.70
2018-05-25T03:59:24.037Z,84.20
2018-05-25T04:02:56.530Z,84.30
2018-05-25T04:06:29.018Z,84.30
2018-05-25T04:10:01.500Z,84.30
2018-05-25T04:13:34.927Z,84.10
2018-05-25T04:17:07.425Z,84.10
2018-05-25T04:20:39.900Z,84.10
2018-05-25T04:24:12.385Z,84.10
2018-05-25T04:27:44.879Z,84.00
2018-05-25T04:31:17.360Z,83.80
2018-05-25T04:34:49.837Z,83.60
2018-05-25T04:38:22.333Z,83.20
2018-05-25T04:41:54.805Z,82.80
2018-05-25T04:45:27.418Z,82.80
2018-05-25T04:48:59.996Z,82.70
2018-05-25T04:52:32.471Z,82.60
2018-05-25T04:56:04.950Z,82.50
2018-05-25T04:59:37.432Z,82.10
2018-05-25T05:03:09.919Z,81.50
2018-05-25T05:06:43.161Z,80.90
2018-05-25T05:10:15.649Z,80.90
2018-05-25T05:13:48.161Z,80.80
2018-05-25T05:17:20.643Z,80.20
2018-05-25T05:20:53.117Z,79.90
2018-05-25T05:24:25.601Z,79.50
2018-05-25T05:27:58.088Z,79.50
2018-05-25T05:31:30.564Z,79.30
2018-05-25T05:35:03.049Z,79.00
2018-05-25T05:38:35.531Z,78.80
2018-05-25T05:42:08.016Z,78.70
2018-05-25T05:45:40.488Z,78.50
2018-05-25T05:49:12.971Z,77.90
2018-05-25T05:52:45.459Z,77.60
2018-05-25T05:56:17.928Z,77.30
2018-05-25T05:59:50.416Z,77.00
2018-05-25T06:03:22.901Z,76.50
2018-05-25T06:06:55.375Z,76.10
2018-05-25T06:10:27.872Z,75.60
2018-05-25T06:14:00.353Z,75.10
2018-05-25T06:17:32.844Z,74.80
2018-05-25T06:21:05.323Z,74.70
2018-05-25T06:24:37.808Z,74.40
2018-05-25T06:28:10.305Z,73.90
2018-05-25T06:31:42.782Z,73.90
2018-05-25T06:35:16.042Z,73.10
2018-05-25T06:38:48.585Z,73.00
2018-05-25T06:42:21.844Z,73.70
2018-05-25T06:45:54.316Z,72.80
2018-05-25T06:49:26.806Z,72.50
2018-05-25T06:52:59.284Z,72.50
2018-05-25T06:56:31.763Z,72.30
2018-05-25T07:00:04.241Z,72.40
2018-05-25T07:03:37.494Z,72.10
2018-05-25T07:07:09.975Z,72.10
2018-05-25T07:10:43.212Z,72.00
2018-05-25T07:14:15.696Z,72.00
2018-05-25T07:17:48.197Z,71.50
2018-05-25T07:21:20.684Z,70.70
2018-05-25T07:24:53.167Z,70.70
2018-05-25T07:28:25.672Z,71.10
2018-05-25T07:31:58.915Z,70.60
2018-05-25T07:35:31.412Z,70.50
2018-05-25T07:39:03.895Z,70.10
2018-05-25T07:42:36.381Z,69.80
2018-05-25T07:46:08.864Z,69.40
2018-05-25T07:49:41.356Z,69.20
2018-05-25T07:53:13.831Z,69.10
2018-05-25T07:56:46.313Z,69.00
2018-05-25T08:00:18.826Z,68.80
2018-05-25T08:03:51.284Z,68.70
2018-05-25T08:07:23.768Z,68.70
2018-05-25T08:10:56.249Z,68.60
2018-05-25T08:14:28.727Z,68.50
2018-05-25T08:18:01.209Z,68.00
2018-05-25T08:21:33.692Z,67.40
2018-05-25T08:25:06.178Z,66.60
2018-05-25T08:28:38.657Z,66.20
2018-05-25T08:32:11.141Z,65.30
2018-05-25T08:35:43.627Z,65.00
2018-05-25T08:39:16.109Z,64.60
2018-05-25T08:42:48.580Z,64.30
2018-05-25T08:46:21.080Z,64.00
2018-05-25T08:49:53.568Z,63.70
2018-05-25T08:53:26.046Z,62.90
2018-05-25T08:56:58.554Z,61.60
2018-05-25T09:00:31.041Z,60.50
2018-05-25T09:04:03.528Z,58.30
2018-05-25T09:07:36.007Z,59.00
2018-05-25T09:11:08.490Z,59.30
2018-05-25T09:14:40.976Z,58.90
2018-05-25T09:18:13.449Z,58.40
2018-05-25T09:21:45.958Z,58.40
2018-05-25T09:25:18.423Z,58.40
2018-05-25T09:28:50.907Z,58.80
2018-05-25T09:32:23.387Z,58.40
2018-05-25T09:35:55.864Z,58.80
2018-05-25T09:39:28.357Z,58.80
2018-05-25T09:43:00.844Z,57.70
2018-05-25T09:46:33.329Z,57.30
2018-05-25T09:50:05.821Z,56.10
2018-05-25T09:53:38.300Z,54.80
2018-05-25T09:57:10.777Z,54.80
2018-05-25T10:00:43.268Z,54.50
2018-05-25T10:04:15.753Z,54.60
2018-05-25T10:07:48.241Z,54.60
2018-05-25T10:11:20.709Z,55.60
2018-05-25T10:14:53.192Z,55.80
2018-05-25T10:18:25.683Z,56.30
2018-05-25T10:21:58.163Z,56.60
2018-05-25T10:25:30.641Z,56.50
2018-05-25T10:29:03.120Z,56.20
2018-05-25T10:32:35.600Z,56.50
2018-05-25T10:36:08.076Z,56.20
2018-05-25T10:39:40.566Z,55.30
2018-05-25T10:43:13.044Z,54.30
2018-05-25T10:46:45.520Z,53.60
2018-05-25T10:50:18.028Z,53.70
2018-05-25T10:53:50.501Z,52.80
2018-05-25T10:57:22.987Z,51.80
2018-05-25T11:00:55.460Z,51.50
2018-05-25T11:04:27.951Z,50.90
2018-05-25T11:08:00.440Z,51.50
2018-05-25T11:11:32.909Z,52.00
2018-05-25T11:15:05.402Z,52.00
2018-05-25T11:18:37.888Z,51.90
2018-05-25T11:22:10.368Z,51.90
2018-05-25T11:25:42.837Z,52.00
2018-05-25T11:29:15.323Z,52.70
2018-05-25T11:32:48.579Z,55.10
2018-05-25T11:36:21.060Z,55.10
2018-05-25T11:39:53.532Z,57.10
2018-05-25T11:43:26.776Z,53.40
2018-05-25T11:46:59.251Z,53.40
2018-05-25T11:50:31.719Z,52.70
2018-05-25T11:54:04.211Z,52.40
2018-05-25T11:57:36.689Z,52.50
2018-05-25T12:01:09.184Z,54.50
2018-05-25T12:04:41.657Z,55.60
2018-05-25T12:08:14.145Z,56.40
2018-05-25T12:11:46.621Z,57.60
2018-05-25T12:15:19.100Z,57.70
2018-05-25T12:18:51.589Z,57.80
2018-05-25T12:22:24.076Z,57.10
2018-05-25T12:25:56.563Z,57.20
2018-05-25T12:29:29.046Z,56.90
2018-05-25T12:33:01.530Z,56.30
2018-05-25T12:36:34.016Z,55.50
2018-05-25T12:40:06.485Z,54.90
2018-05-25T12:43:38.964Z,53.00
2018-05-25T12:47:12.206Z,53.00
2018-05-25T12:50:44.687Z,53.30
2018-05-25T12:54:17.152Z,51.90
2018-05-25T12:57:49.637Z,50.90
2018-05-25T13:01:22.128Z,49.60
2018-05-25T13:04:54.592Z,48.00
2018-05-25T13:08:27.072Z,47.80
2018-05-25T13:11:59.552Z,47.60
2018-05-25T13:15:32.029Z,47.10
2018-05-25T13:19:04.511Z,47.50
2018-05-25T13:22:36.989Z,46.70
2018-05-25T13:26:09.468Z,45.70
2018-05-25T13:29:41.948Z,45.10
2018-05-25T13:33:14.418Z,44.50
2018-05-25T13:36:46.900Z,44.30
2018-05-25T13:40:19.399Z,44.70
2018-05-25T13:43:51.872Z,45.10
2018-05-25T13:47:24.353Z,44.60
2018-05-25T13:50:56.834Z,44.00
2018-05-25T13:54:29.323Z,42.40
2018-05-25T13:58:02.567Z,41.50
2018-05-25T14:01:35.810Z,39.40
2018-05-25T14:05:08.292Z,39.30
2018-05-25T14:08:40.774Z,39.40
2018-05-25T14:12:13.258Z,40.50
2018-05-25T14:15:45.740Z,40.20
2018-05-25T14:19:18.220Z,39.40
2018-05-25T14:22:50.698Z,38.70
2018-05-25T14:26:23.181Z,38.90
2018-05-25T14:29:55.668Z,39.70
2018-05-25T14:33:28.140Z,39.90
2018-05-25T14:37:00.624Z,40.10
2018-05-25T14:40:33.105Z,41.30
2018-05-25T14:44:05.594Z,40.80
2018-05-25T14:47:38.065Z,40.90
2018-05-25T14:51:10.555Z,40.50
2018-05-25T14:54:43.047Z,40.30
2018-05-25T14:58:15.532Z,39.70
2018-05-25T15:01:48.009Z,40.40
2018-05-25T15:05:20.507Z,40.30
2018-05-25T15:08:52.991Z,40.10
2018-05-25T15:12:25.465Z,39.90
2018-05-25T15:15:57.948Z,39.50
2018-05-25T15:19:30.443Z,39.30
2018-05-25T15:23:03.716Z,41.20
2018-05-25T15:26:36.193Z,41.20
2018-05-25T15:30:08.673Z,41.50
2018-05-25T15:33:41.162Z,41.60
2018-05-25T15:37:13.632Z,41.80
2018-05-25T15:40:46.113Z,42.30
2018-05-25T15:44:18.596Z,42.30
2018-05-25T15:47:51.086Z,41.10
2018-05-25T15:51:23.555Z,39.90
2018-05-25T15:54:56.041Z,39.50
2018-05-25T15:58:28.534Z,39.20
2018-05-25T16:02:01.005Z,38.50
2018-05-25T16:05:33.493Z,38.60
2018-05-25T16:09:05.975Z,38.20
2018-05-25T16:12:38.458Z,37.40
2018-05-25T16:16:10.930Z,37.20
2018-05-25T16:19:43.418Z,36.60
2018-05-25T16:23:15.915Z,36.30
2018-05-25T16:26:48.403Z,36.60
2018-05-25T16:30:20.880Z,37.00
2018-05-25T16:33:53.353Z,37.20
2018-05-25T16:37:25.836Z,37.90
2018-05-25T16:40:58.317Z,38.00
2018-05-25T16:44:30.796Z,38.40
2018-05-25T16:48:03.278Z,39.00
2018-05-25T16:51:35.761Z,39.40
2018-05-25T16:55:08.243Z,40.00
2018-05-25T16:58:40.726Z,40.60
2018-05-25T17:02:13.205Z,41.00
2018-05-25T17:05:45.676Z,41.50
2018-05-25T17:09:18.160Z,42.00
2018-05-25T17:12:50.680Z,42.30
2018-05-25T17:16:23.126Z,42.40
2018-05-25T17:19:55.613Z,42.50
2018-05-25T17:23:28.093Z,43.50
2018-05-25T17:27:00.587Z,43.00
2018-05-25T17:30:33.077Z,43.60
2018-05-25T17:34:05.557Z,43.90
2018-05-25T17:37:38.044Z,44.10
2018-05-25T17:41:10.527Z,44.50
2018-05-25T17:44:43.010Z,45.10
2018-05-25T17:48:15.493Z,45.80
2018-05-25T17:51:48.124Z,46.30
2018-05-25T17:55:20.608Z,46.70
2018-05-25T17:58:53.088Z,47.50
2018-05-25T18:02:25.568Z,47.80
2018-05-25T18:05:58.052Z,48.20
2018-05-25T18:09:30.573Z,48.70
2018-05-25T18:13:03.070Z,49.10
2018-05-25T18:16:35.562Z,49.60
2018-05-25T18:20:08.057Z,50.20
2018-05-25T18:23:41.307Z,51.20
2018-05-25T18:27:13.815Z,51.20
2018-05-25T18:30:46.332Z,51.60
2018-05-25T18:34:19.575Z,52.40
2018-05-25T18:37:52.069Z,52.40
2018-05-25T18:41:24.565Z,52.70
2018-05-25T18:44:57.097Z,53.10
2018-05-25T18:48:30.329Z,53.90
2018-05-25T18:52:02.825Z,53.90
2018-05-25T18:55:35.312Z,54.20
2018-05-25T18:59:07.805Z,54.60
2018-05-25T19:02:40.302Z,55.00
2018-05-25T19:06:13.553Z,55.90
2018-05-25T19:09:46.037Z,55.90
2018-05-25T19:13:18.516Z,56.40
2018-05-25T19:16:50.996Z,56.80
2018-05-25T19:20:23.480Z,57.20
2018-05-25T19:23:55.984Z,57.50
2018-05-25T19:27:29.604Z,57.90
2018-05-25T19:31:02.140Z,58.20
2018-05-25T19:34:34.652Z,58.50
2018-05-25T19:38:07.154Z,58.90
2018-05-25T19:41:39.663Z,59.10
2018-05-25T19:45:12.932Z,59.50
2018-05-25T19:48:45.446Z,59.50
2018-05-25T19:52:17.932Z,59.80
2018-05-25T19:55:50.426Z,59.90
2018-05-25T19:59:22.921Z,60.20
2018-05-25T20:02:55.426Z,60.50
2018-05-25T20:06:27.924Z,60.90
2018-05-25T20:10:00.426Z,61.10
2018-05-25T20:13:33.699Z,61.60
2018-05-25T20:17:06.204Z,61.50
2018-05-25T20:20:39.491Z,62.10
2018-05-25T20:24:11.994Z,62.00
2018-05-25T20:27:45.248Z,62.70
2018-05-25T20:31:17.750Z,62.80
2018-05-25T20:34:50.260Z,62.80
2018-05-25T20:38:23.525Z,63.40
2018-05-25T20:41:56.007Z,63.70
2018-05-25T20:45:28.516Z,63.70
2018-05-25T20:49:01.813Z,64.50
2018-05-25T20:52:34.309Z,64.50
2018-05-25T20:56:07.568Z,65.30
2018-05-25T20:59:40.055Z,65.30
2018-05-25T21:03:12.569Z,65.50
2018-05-25T21:06:45.816Z,66.20
2018-05-25T21:10:18.314Z,66.20
2018-05-25T21:13:50.904Z,66.30
2018-05-25T21:17:23.400Z,66.60
2018-05-25T21:20:55.896Z,66.90
2018-05-25T21:24:29.160Z,67.30
2018-05-25T21:28:01.673Z,67.30
2018-05-25T21:31:34.145Z,67.50
2018-05-25T21:35:06.637Z,67.60
2018-05-25T21:38:39.137Z,67.90
2018-05-25T21:42:12.405Z,68.20
2018-05-25T21:45:44.892Z,68.20
2018-05-25T21:49:17.408Z,68.50
2018-05-25T21:52:49.918Z,68.60
2018-05-25T21:56:22.398Z,68.70
2018-05-25T21:59:54.881Z,69.00
2018-05-25T22:03:27.360Z,69.10
2018-05-25T22:06:59.909Z,69.30
2018-05-25T22:10:32.401Z,69.70
2018-05-25T22:14:04.928Z,69.90
2018-05-25T22:17:37.425Z,70.10
2018-05-25T22:21:09.896Z,70.40
2018-05-25T22:24:42.384Z,70.50
2018-05-25T22:28:14.876Z,70.60
2018-05-25T22:31:47.361Z,70.80
2018-05-25T22:35:19.843Z,70.90
2018-05-25T22:38:52.333Z,71.00
2018-05-25T22:42:36.668Z,71.10
2018-05-25T22:46:21.080Z,71.20
2018-05-25T22:50:05.459Z,71.30
2018-05-25T22:53:42.959Z,71.50
2018-05-25T22:57:15.485Z,71.70
2018-05-25T23:00:48.000Z,71.90
2018-05-25T23:04:21.264Z,72.10
2018-05-25T23:07:53.769Z,72.90
2018-05-25T23:11:27.039Z,72.30
2018-05-25T23:14:59.536Z,72.20
2018-05-25T23:18:32.043Z,72.30
2018-05-25T23:22:05.296Z,72.60
2018-05-25T23:25:37.768Z,72.50
2018-05-25T23:29:10.272Z,72.80
2018-05-25T23:32:42.791Z,73.00
2018-05-25T23:36:15.282Z,73.20
2018-05-25T23:39:47.766Z,73.30
2018-05-25T23:43:20.261Z,73.50
2018-05-25T23:46:52.777Z,73.90
2018-05-25T23:50:25.265Z,73.90
2018-05-25T23:53:57.757Z,74.10
2018-05-25T23:57:30.246Z,74.20
